<?xml version="1.0" encoding="UTF-8"?>
<gpx xmlns="http://www.topografix.com/GPX/1/1" version="1.1" xmlns:xsi="http://www.w3.org/2001/XMLSchema-instance" xsi:schemaLocation="http://www.topografix.com/GPX/1/1 http://www.topografix.com/GPX/1/1/gpx.xsd" creator="MotionXGPSFull 24.4 Build 5112 R64">
<trk>
<name><![CDATA[Morning hike]]></name>
<desc><![CDATA[Feb 18, 2018 10:50 am]]></desc>
<trkseg>
<trkpt lat="22.2666354" lon="114.2513459">
<ele>3.668</ele>
<time>2018-02-18T02:50:08.998Z</time>
</trkpt>
<trkpt lat="22.2666297" lon="114.2513525">
<ele>3.681</ele>
<time>2018-02-18T02:50:09.691Z</time>
</trkpt>
<trkpt lat="22.2665351" lon="114.2513913">
<ele>3.712</ele>
<time>2018-02-18T02:50:18.907Z</time>
</trkpt>
<trkpt lat="22.2664087" lon="114.2515425">
<ele>3.745</ele>
<time>2018-02-18T02:50:38.536Z</time>
</trkpt>
<trkpt lat="22.2663770" lon="114.2516409">
<ele>3.902</ele>
<time>2018-02-18T02:50:48.918Z</time>
</trkpt>
<trkpt lat="22.2662776" lon="114.2516448">
<ele>4.496</ele>
<time>2018-02-18T02:50:56.826Z</time>
</trkpt>
<trkpt lat="22.2662316" lon="114.2517383">
<ele>5.464</ele>
<time>2018-02-18T02:51:03.224Z</time>
</trkpt>
<trkpt lat="22.2662339" lon="114.2518436">
<ele>6.434</ele>
<time>2018-02-18T02:51:09.997Z</time>
</trkpt>
<trkpt lat="22.2662339" lon="114.2518436">
<ele>7.197</ele>
<time>2018-02-18T02:51:16.997Z</time>
</trkpt>
<trkpt lat="22.2662339" lon="114.2518436">
<ele>7.590</ele>
<time>2018-02-18T02:51:28.338Z</time>
</trkpt>
<trkpt lat="22.2661707" lon="114.2519464">
<ele>7.347</ele>
<time>2018-02-18T02:51:52.572Z</time>
</trkpt>
<trkpt lat="22.2660694" lon="114.2519465">
<ele>7.117</ele>
<time>2018-02-18T02:52:03.429Z</time>
</trkpt>
<trkpt lat="22.2659855" lon="114.2519847">
<ele>6.789</ele>
<time>2018-02-18T02:52:10.926Z</time>
</trkpt>
<trkpt lat="22.2658936" lon="114.2519850">
<ele>6.476</ele>
<time>2018-02-18T02:52:18.922Z</time>
</trkpt>
<trkpt lat="22.2658006" lon="114.2519622">
<ele>6.327</ele>
<time>2018-02-18T02:52:29.855Z</time>
</trkpt>
<trkpt lat="22.2657547" lon="114.2518755">
<ele>6.206</ele>
<time>2018-02-18T02:52:40.471Z</time>
</trkpt>
<trkpt lat="22.2656592" lon="114.2518516">
<ele>5.791</ele>
<time>2018-02-18T02:52:53.868Z</time>
</trkpt>
<trkpt lat="22.2655731" lon="114.2519112">
<ele>5.055</ele>
<time>2018-02-18T02:53:04.041Z</time>
</trkpt>
<trkpt lat="22.2655233" lon="114.2519986">
<ele>4.369</ele>
<time>2018-02-18T02:53:10.355Z</time>
</trkpt>
<trkpt lat="22.2654827" lon="114.2520944">
<ele>4.011</ele>
<time>2018-02-18T02:53:16.496Z</time>
</trkpt>
<trkpt lat="22.2654641" lon="114.2521991">
<ele>3.968</ele>
<time>2018-02-18T02:53:22.235Z</time>
</trkpt>
<trkpt lat="22.2654386" lon="114.2523131">
<ele>4.226</ele>
<time>2018-02-18T02:53:28.406Z</time>
</trkpt>
<trkpt lat="22.2654430" lon="114.2524104">
<ele>4.764</ele>
<time>2018-02-18T02:53:33.927Z</time>
</trkpt>
<trkpt lat="22.2654764" lon="114.2525154">
<ele>5.425</ele>
<time>2018-02-18T02:53:41.002Z</time>
</trkpt>
<trkpt lat="22.2654868" lon="114.2526195">
<ele>5.945</ele>
<time>2018-02-18T02:53:47.993Z</time>
</trkpt>
<trkpt lat="22.2654868" lon="114.2526195">
<ele>6.182</ele>
<time>2018-02-18T02:53:54.993Z</time>
</trkpt>
<trkpt lat="22.2654868" lon="114.2526195">
<ele>6.212</ele>
<time>2018-02-18T02:54:29.610Z</time>
</trkpt>
<trkpt lat="22.2654815" lon="114.2528537">
<ele>6.145</ele>
<time>2018-02-18T02:55:13.991Z</time>
</trkpt>
<trkpt lat="22.2654815" lon="114.2528537">
<ele>6.070</ele>
<time>2018-02-18T02:55:19.990Z</time>
</trkpt>
<trkpt lat="22.2654815" lon="114.2528537">
<ele>6.047</ele>
<time>2018-02-18T02:55:20.090Z</time>
</trkpt>
<trkpt lat="22.2653483" lon="114.2529975">
<ele>6.059</ele>
<time>2018-02-18T02:58:47.997Z</time>
</trkpt>
<trkpt lat="22.2653483" lon="114.2529975">
<ele>6.063</ele>
<time>2018-02-18T02:58:51.996Z</time>
</trkpt>
<trkpt lat="22.2653483" lon="114.2529975">
<ele>6.060</ele>
<time>2018-02-18T02:58:56.996Z</time>
</trkpt>
<trkpt lat="22.2653483" lon="114.2529975">
<ele>6.055</ele>
<time>2018-02-18T02:59:36.015Z</time>
</trkpt>
<trkpt lat="22.2653035" lon="114.2531706">
<ele>6.053</ele>
<time>2018-02-18T03:00:23.994Z</time>
</trkpt>
<trkpt lat="22.2653035" lon="114.2531706">
<ele>6.053</ele>
<time>2018-02-18T03:00:30.994Z</time>
</trkpt>
<trkpt lat="22.2653035" lon="114.2531706">
<ele>6.052</ele>
<time>2018-02-18T03:00:31.094Z</time>
</trkpt>
<trkpt lat="22.2651613" lon="114.2531645">
<ele>6.050</ele>
<time>2018-02-18T03:00:40.994Z</time>
</trkpt>
<trkpt lat="22.2651613" lon="114.2531645">
<ele>6.047</ele>
<time>2018-02-18T03:00:47.994Z</time>
</trkpt>
<trkpt lat="22.2651613" lon="114.2531645">
<ele>6.045</ele>
<time>2018-02-18T03:00:59.284Z</time>
</trkpt>
<trkpt lat="22.2651993" lon="114.2530723">
<ele>6.044</ele>
<time>2018-02-18T03:02:38.764Z</time>
</trkpt>
<trkpt lat="22.2652399" lon="114.2529823">
<ele>7.140</ele>
<time>2018-02-18T03:02:59.771Z</time>
</trkpt>
<trkpt lat="22.2652568" lon="114.2528776">
<ele>10.417</ele>
<time>2018-02-18T03:03:14.990Z</time>
</trkpt>
<trkpt lat="22.2652568" lon="114.2528776">
<ele>14.441</ele>
<time>2018-02-18T03:03:29.990Z</time>
</trkpt>
<trkpt lat="22.2652568" lon="114.2528776">
<ele>16.595</ele>
<time>2018-02-18T03:03:30.090Z</time>
</trkpt>
<trkpt lat="22.2652568" lon="114.2528776">
<ele>15.298</ele>
<time>2018-02-18T03:03:51.998Z</time>
</trkpt>
<trkpt lat="22.2652568" lon="114.2528776">
<ele>14.634</ele>
<time>2018-02-18T03:03:52.098Z</time>
</trkpt>
<trkpt lat="22.2651487" lon="114.2528138">
<ele>14.824</ele>
<time>2018-02-18T03:04:12.999Z</time>
</trkpt>
<trkpt lat="22.2651487" lon="114.2528138">
<ele>15.406</ele>
<time>2018-02-18T03:04:15.999Z</time>
</trkpt>
<trkpt lat="22.2651487" lon="114.2528138">
<ele>15.673</ele>
<time>2018-02-18T03:04:33.998Z</time>
</trkpt>
<trkpt lat="22.2651487" lon="114.2528138">
<ele>15.582</ele>
<time>2018-02-18T03:04:39.629Z</time>
</trkpt>
<trkpt lat="22.2649784" lon="114.2528105">
<ele>15.490</ele>
<time>2018-02-18T03:05:08.874Z</time>
</trkpt>
<trkpt lat="22.2649017" lon="114.2528733">
<ele>16.240</ele>
<time>2018-02-18T03:05:20.997Z</time>
</trkpt>
<trkpt lat="22.2649017" lon="114.2528733">
<ele>18.212</ele>
<time>2018-02-18T03:05:50.997Z</time>
</trkpt>
<trkpt lat="22.2649017" lon="114.2528733">
<ele>19.832</ele>
<time>2018-02-18T03:05:51.097Z</time>
</trkpt>
<trkpt lat="22.2647670" lon="114.2529966">
<ele>19.794</ele>
<time>2018-02-18T03:06:08.996Z</time>
</trkpt>
<trkpt lat="22.2647670" lon="114.2529966">
<ele>19.147</ele>
<time>2018-02-18T03:06:10.996Z</time>
</trkpt>
<trkpt lat="22.2647670" lon="114.2529966">
<ele>19.077</ele>
<time>2018-02-18T03:09:49.990Z</time>
</trkpt>
<trkpt lat="22.2647670" lon="114.2529966">
<ele>19.337</ele>
<time>2018-02-18T03:09:50.090Z</time>
</trkpt>
<trkpt lat="22.2646786" lon="114.2530204">
<ele>19.227</ele>
<time>2018-02-18T03:10:11.990Z</time>
</trkpt>
<trkpt lat="22.2646786" lon="114.2530204">
<ele>19.113</ele>
<time>2018-02-18T03:10:12.990Z</time>
</trkpt>
<trkpt lat="22.2646786" lon="114.2530204">
<ele>19.109</ele>
<time>2018-02-18T03:10:29.039Z</time>
</trkpt>
<trkpt lat="22.2645853" lon="114.2530178">
<ele>19.141</ele>
<time>2018-02-18T03:10:53.231Z</time>
</trkpt>
<trkpt lat="22.2644928" lon="114.2530339">
<ele>20.796</ele>
<time>2018-02-18T03:11:02.998Z</time>
</trkpt>
<trkpt lat="22.2644928" lon="114.2530339">
<ele>25.159</ele>
<time>2018-02-18T03:11:06.998Z</time>
</trkpt>
<trkpt lat="22.2644928" lon="114.2530339">
<ele>28.803</ele>
<time>2018-02-18T03:11:07.098Z</time>
</trkpt>
<trkpt lat="22.2643912" lon="114.2530760">
<ele>26.791</ele>
<time>2018-02-18T03:11:21.835Z</time>
</trkpt>
<trkpt lat="22.2643405" lon="114.2531574">
<ele>26.590</ele>
<time>2018-02-18T03:11:29.999Z</time>
</trkpt>
<trkpt lat="22.2643405" lon="114.2531574">
<ele>29.282</ele>
<time>2018-02-18T03:11:43.998Z</time>
</trkpt>
<trkpt lat="22.2643405" lon="114.2531574">
<ele>31.934</ele>
<time>2018-02-18T03:11:44.098Z</time>
</trkpt>
<trkpt lat="22.2642550" lon="114.2531875">
<ele>31.925</ele>
<time>2018-02-18T03:12:04.165Z</time>
</trkpt>
<trkpt lat="22.2642516" lon="114.2532992">
<ele>31.752</ele>
<time>2018-02-18T03:12:14.415Z</time>
</trkpt>
<trkpt lat="22.2642213" lon="114.2533945">
<ele>34.054</ele>
<time>2018-02-18T03:12:22.998Z</time>
</trkpt>
<trkpt lat="22.2642213" lon="114.2533945">
<ele>37.282</ele>
<time>2018-02-18T03:12:27.997Z</time>
</trkpt>
<trkpt lat="22.2642213" lon="114.2533945">
<ele>38.904</ele>
<time>2018-02-18T03:12:54.628Z</time>
</trkpt>
<trkpt lat="22.2641911" lon="114.2535078">
<ele>37.888</ele>
<time>2018-02-18T03:13:21.652Z</time>
</trkpt>
<trkpt lat="22.2640975" lon="114.2535234">
<ele>37.812</ele>
<time>2018-02-18T03:13:35.619Z</time>
</trkpt>
<trkpt lat="22.2640035" lon="114.2535086">
<ele>39.023</ele>
<time>2018-02-18T03:13:46.995Z</time>
</trkpt>
<trkpt lat="22.2640035" lon="114.2535086">
<ele>40.619</ele>
<time>2018-02-18T03:13:47.995Z</time>
</trkpt>
<trkpt lat="22.2640035" lon="114.2535086">
<ele>41.425</ele>
<time>2018-02-18T03:13:48.095Z</time>
</trkpt>
<trkpt lat="22.2639227" lon="114.2534397">
<ele>40.901</ele>
<time>2018-02-18T03:14:00.995Z</time>
</trkpt>
<trkpt lat="22.2639227" lon="114.2534397">
<ele>40.642</ele>
<time>2018-02-18T03:14:01.995Z</time>
</trkpt>
<trkpt lat="22.2639227" lon="114.2534397">
<ele>40.642</ele>
<time>2018-02-18T03:14:19.420Z</time>
</trkpt>
<trkpt lat="22.2638309" lon="114.2534477">
<ele>40.711</ele>
<time>2018-02-18T03:14:39.994Z</time>
</trkpt>
<trkpt lat="22.2638309" lon="114.2534477">
<ele>40.656</ele>
<time>2018-02-18T03:14:42.994Z</time>
</trkpt>
<trkpt lat="22.2638309" lon="114.2534477">
<ele>40.635</ele>
<time>2018-02-18T03:14:43.094Z</time>
</trkpt>
<trkpt lat="22.2637226" lon="114.2534433">
<ele>40.645</ele>
<time>2018-02-18T03:15:00.994Z</time>
</trkpt>
<trkpt lat="22.2637226" lon="114.2534433">
<ele>40.650</ele>
<time>2018-02-18T03:15:04.993Z</time>
</trkpt>
<trkpt lat="22.2637226" lon="114.2534433">
<ele>40.637</ele>
<time>2018-02-18T03:15:05.093Z</time>
</trkpt>
<trkpt lat="22.2636323" lon="114.2534624">
<ele>40.603</ele>
<time>2018-02-18T03:15:29.734Z</time>
</trkpt>
<trkpt lat="22.2635612" lon="114.2535308">
<ele>41.323</ele>
<time>2018-02-18T03:15:40.844Z</time>
</trkpt>
<trkpt lat="22.2634936" lon="114.2536103">
<ele>43.364</ele>
<time>2018-02-18T03:15:51.858Z</time>
</trkpt>
<trkpt lat="22.2634113" lon="114.2536780">
<ele>45.827</ele>
<time>2018-02-18T03:16:04.595Z</time>
</trkpt>
<trkpt lat="22.2633516" lon="114.2537544">
<ele>47.694</ele>
<time>2018-02-18T03:16:20.317Z</time>
</trkpt>
<trkpt lat="22.2632908" lon="114.2538315">
<ele>49.092</ele>
<time>2018-02-18T03:16:35.778Z</time>
</trkpt>
<trkpt lat="22.2632214" lon="114.2538947">
<ele>50.334</ele>
<time>2018-02-18T03:16:46.120Z</time>
</trkpt>
<trkpt lat="22.2631495" lon="114.2539580">
<ele>51.525</ele>
<time>2018-02-18T03:16:55.991Z</time>
</trkpt>
<trkpt lat="22.2631495" lon="114.2539580">
<ele>52.506</ele>
<time>2018-02-18T03:17:07.990Z</time>
</trkpt>
<trkpt lat="22.2631495" lon="114.2539580">
<ele>52.964</ele>
<time>2018-02-18T03:17:58.052Z</time>
</trkpt>
<trkpt lat="22.2630646" lon="114.2540140">
<ele>52.892</ele>
<time>2018-02-18T03:18:12.998Z</time>
</trkpt>
<trkpt lat="22.2630646" lon="114.2540140">
<ele>52.687</ele>
<time>2018-02-18T03:18:13.998Z</time>
</trkpt>
<trkpt lat="22.2630646" lon="114.2540140">
<ele>52.652</ele>
<time>2018-02-18T03:20:32.969Z</time>
</trkpt>
<trkpt lat="22.2629758" lon="114.2539618">
<ele>52.737</ele>
<time>2018-02-18T03:20:47.956Z</time>
</trkpt>
<trkpt lat="22.2628836" lon="114.2539841">
<ele>53.354</ele>
<time>2018-02-18T03:20:57.995Z</time>
</trkpt>
<trkpt lat="22.2628836" lon="114.2539841">
<ele>54.800</ele>
<time>2018-02-18T03:21:07.995Z</time>
</trkpt>
<trkpt lat="22.2628836" lon="114.2539841">
<ele>55.974</ele>
<time>2018-02-18T03:21:08.095Z</time>
</trkpt>
<trkpt lat="22.2627543" lon="114.2539861">
<ele>55.928</ele>
<time>2018-02-18T03:21:35.400Z</time>
</trkpt>
<trkpt lat="22.2626626" lon="114.2539698">
<ele>55.982</ele>
<time>2018-02-18T03:21:42.994Z</time>
</trkpt>
<trkpt lat="22.2626626" lon="114.2539698">
<ele>57.335</ele>
<time>2018-02-18T03:21:51.994Z</time>
</trkpt>
<trkpt lat="22.2626626" lon="114.2539698">
<ele>58.687</ele>
<time>2018-02-18T03:21:52.094Z</time>
</trkpt>
<trkpt lat="22.2625363" lon="114.2540148">
<ele>58.668</ele>
<time>2018-02-18T03:22:17.619Z</time>
</trkpt>
<trkpt lat="22.2624415" lon="114.2540056">
<ele>58.722</ele>
<time>2018-02-18T03:22:29.055Z</time>
</trkpt>
<trkpt lat="22.2623507" lon="114.2539962">
<ele>60.423</ele>
<time>2018-02-18T03:22:40.995Z</time>
</trkpt>
<trkpt lat="22.2622562" lon="114.2539950">
<ele>62.964</ele>
<time>2018-02-18T03:22:54.105Z</time>
</trkpt>
<trkpt lat="22.2621699" lon="114.2540401">
<ele>65.041</ele>
<time>2018-02-18T03:23:06.990Z</time>
</trkpt>
<trkpt lat="22.2620775" lon="114.2540427">
<ele>66.575</ele>
<time>2018-02-18T03:23:17.992Z</time>
</trkpt>
<trkpt lat="22.2620775" lon="114.2540427">
<ele>67.685</ele>
<time>2018-02-18T03:23:29.992Z</time>
</trkpt>
<trkpt lat="22.2620775" lon="114.2540427">
<ele>68.200</ele>
<time>2018-02-18T03:25:29.187Z</time>
</trkpt>
<trkpt lat="22.2619681" lon="114.2540309">
<ele>68.115</ele>
<time>2018-02-18T03:25:49.559Z</time>
</trkpt>
<trkpt lat="22.2618774" lon="114.2540283">
<ele>68.202</ele>
<time>2018-02-18T03:26:05.343Z</time>
</trkpt>
<trkpt lat="22.2617872" lon="114.2540220">
<ele>69.136</ele>
<time>2018-02-18T03:26:21.874Z</time>
</trkpt>
<trkpt lat="22.2616926" lon="114.2540125">
<ele>70.557</ele>
<time>2018-02-18T03:26:40.111Z</time>
</trkpt>
<trkpt lat="22.2616114" lon="114.2539700">
<ele>71.810</ele>
<time>2018-02-18T03:26:57.997Z</time>
</trkpt>
<trkpt lat="22.2616114" lon="114.2539700">
<ele>72.668</ele>
<time>2018-02-18T03:27:02.997Z</time>
</trkpt>
<trkpt lat="22.2616114" lon="114.2539700">
<ele>73.018</ele>
<time>2018-02-18T03:27:14.283Z</time>
</trkpt>
<trkpt lat="22.2614566" lon="114.2539145">
<ele>72.940</ele>
<time>2018-02-18T03:27:58.996Z</time>
</trkpt>
<trkpt lat="22.2614566" lon="114.2539145">
<ele>72.765</ele>
<time>2018-02-18T03:28:04.996Z</time>
</trkpt>
<trkpt lat="22.2614566" lon="114.2539145">
<ele>72.726</ele>
<time>2018-02-18T03:28:05.096Z</time>
</trkpt>
<trkpt lat="22.2613339" lon="114.2539221">
<ele>72.784</ele>
<time>2018-02-18T03:28:16.995Z</time>
</trkpt>
<trkpt lat="22.2613339" lon="114.2539221">
<ele>72.817</ele>
<time>2018-02-18T03:28:23.995Z</time>
</trkpt>
<trkpt lat="22.2613339" lon="114.2539221">
<ele>72.791</ele>
<time>2018-02-18T03:28:24.095Z</time>
</trkpt>
<trkpt lat="22.2612437" lon="114.2540206">
<ele>72.748</ele>
<time>2018-02-18T03:29:07.994Z</time>
</trkpt>
<trkpt lat="22.2612437" lon="114.2540206">
<ele>72.728</ele>
<time>2018-02-18T03:29:30.993Z</time>
</trkpt>
<trkpt lat="22.2612437" lon="114.2540206">
<ele>72.716</ele>
<time>2018-02-18T03:29:33.317Z</time>
</trkpt>
<trkpt lat="22.2610984" lon="114.2541747">
<ele>72.694</ele>
<time>2018-02-18T03:29:52.993Z</time>
</trkpt>
<trkpt lat="22.2610984" lon="114.2541747">
<ele>72.669</ele>
<time>2018-02-18T03:29:58.993Z</time>
</trkpt>
<trkpt lat="22.2610984" lon="114.2541747">
<ele>72.647</ele>
<time>2018-02-18T03:30:44.991Z</time>
</trkpt>
<trkpt lat="22.2610984" lon="114.2541747">
<ele>72.623</ele>
<time>2018-02-18T03:30:45.091Z</time>
</trkpt>
<trkpt lat="22.2611036" lon="114.2542820">
<ele>72.575</ele>
<time>2018-02-18T03:31:26.990Z</time>
</trkpt>
<trkpt lat="22.2611036" lon="114.2542820">
<ele>72.562</ele>
<time>2018-02-18T03:31:30.990Z</time>
</trkpt>
<trkpt lat="22.2611036" lon="114.2542820">
<ele>72.550</ele>
<time>2018-02-18T03:31:54.348Z</time>
</trkpt>
<trkpt lat="22.2611759" lon="114.2543521">
<ele>72.494</ele>
<time>2018-02-18T03:32:36.998Z</time>
</trkpt>
<trkpt lat="22.2611759" lon="114.2543521">
<ele>72.477</ele>
<time>2018-02-18T03:32:40.998Z</time>
</trkpt>
<trkpt lat="22.2611759" lon="114.2543521">
<ele>72.464</ele>
<time>2018-02-18T03:32:48.015Z</time>
</trkpt>
<trkpt lat="22.2612542" lon="114.2544088">
<ele>72.410</ele>
<time>2018-02-18T03:33:15.998Z</time>
</trkpt>
<trkpt lat="22.2612542" lon="114.2544088">
<ele>72.393</ele>
<time>2018-02-18T03:33:24.998Z</time>
</trkpt>
<trkpt lat="22.2612542" lon="114.2544088">
<ele>72.380</ele>
<time>2018-02-18T03:33:25.098Z</time>
</trkpt>
<trkpt lat="22.2612542" lon="114.2544088">
<ele>72.326</ele>
<time>2018-02-18T03:33:56.997Z</time>
</trkpt>
<trkpt lat="22.2612542" lon="114.2544088">
<ele>72.304</ele>
<time>2018-02-18T03:33:57.097Z</time>
</trkpt>
<trkpt lat="22.2613962" lon="114.2544343">
<ele>72.286</ele>
<time>2018-02-18T03:34:04.997Z</time>
</trkpt>
<trkpt lat="22.2613962" lon="114.2544343">
<ele>72.269</ele>
<time>2018-02-18T03:34:15.997Z</time>
</trkpt>
<trkpt lat="22.2613962" lon="114.2544343">
<ele>72.248</ele>
<time>2018-02-18T03:34:16.097Z</time>
</trkpt>
<trkpt lat="22.2615354" lon="114.2544549">
<ele>72.224</ele>
<time>2018-02-18T03:34:44.996Z</time>
</trkpt>
<trkpt lat="22.2615354" lon="114.2544549">
<ele>72.203</ele>
<time>2018-02-18T03:34:47.996Z</time>
</trkpt>
<trkpt lat="22.2615354" lon="114.2544549">
<ele>72.184</ele>
<time>2018-02-18T03:34:48.096Z</time>
</trkpt>
<trkpt lat="22.2616219" lon="114.2545162">
<ele>72.162</ele>
<time>2018-02-18T03:35:12.754Z</time>
</trkpt>
<trkpt lat="22.2616899" lon="114.2545879">
<ele>77.313</ele>
<time>2018-02-18T03:35:20.995Z</time>
</trkpt>
<trkpt lat="22.2616899" lon="114.2545879">
<ele>90.769</ele>
<time>2018-02-18T03:35:22.995Z</time>
</trkpt>
<trkpt lat="22.2616899" lon="114.2545879">
<ele>101.982</ele>
<time>2018-02-18T03:35:47.156Z</time>
</trkpt>
<trkpt lat="22.2617786" lon="114.2546207">
<ele>95.777</ele>
<time>2018-02-18T03:35:55.994Z</time>
</trkpt>
<trkpt lat="22.2617786" lon="114.2546207">
<ele>92.042</ele>
<time>2018-02-18T03:36:06.994Z</time>
</trkpt>
<trkpt lat="22.2617786" lon="114.2546207">
<ele>92.218</ele>
<time>2018-02-18T03:36:07.094Z</time>
</trkpt>
<trkpt lat="22.2618788" lon="114.2546217">
<ele>93.616</ele>
<time>2018-02-18T03:36:33.454Z</time>
</trkpt>
<trkpt lat="22.2618566" lon="114.2547202">
<ele>95.250</ele>
<time>2018-02-18T03:36:46.993Z</time>
</trkpt>
<trkpt lat="22.2618566" lon="114.2547202">
<ele>101.144</ele>
<time>2018-02-18T03:36:57.993Z</time>
</trkpt>
<trkpt lat="22.2618566" lon="114.2547202">
<ele>106.368</ele>
<time>2018-02-18T03:46:26.117Z</time>
</trkpt>
<trkpt lat="22.2618086" lon="114.2548275">
<ele>106.275</ele>
<time>2018-02-18T03:48:50.997Z</time>
</trkpt>
<trkpt lat="22.2618086" lon="114.2548275">
<ele>104.161</ele>
<time>2018-02-18T03:49:02.997Z</time>
</trkpt>
<trkpt lat="22.2618086" lon="114.2548275">
<ele>103.911</ele>
<time>2018-02-18T03:49:03.097Z</time>
</trkpt>
<trkpt lat="22.2618808" lon="114.2548889">
<ele>104.897</ele>
<time>2018-02-18T03:49:26.997Z</time>
</trkpt>
<trkpt lat="22.2618808" lon="114.2548889">
<ele>104.587</ele>
<time>2018-02-18T03:49:28.997Z</time>
</trkpt>
<trkpt lat="22.2618808" lon="114.2548889">
<ele>104.498</ele>
<time>2018-02-18T03:49:29.097Z</time>
</trkpt>
<trkpt lat="22.2618833" lon="114.2549924">
<ele>104.584</ele>
<time>2018-02-18T03:50:23.996Z</time>
</trkpt>
<trkpt lat="22.2618833" lon="114.2549924">
<ele>104.523</ele>
<time>2018-02-18T03:50:32.995Z</time>
</trkpt>
<trkpt lat="22.2618833" lon="114.2549924">
<ele>104.475</ele>
<time>2018-02-18T03:50:49.995Z</time>
</trkpt>
<trkpt lat="22.2618833" lon="114.2549924">
<ele>104.447</ele>
<time>2018-02-18T03:50:50.095Z</time>
</trkpt>
<trkpt lat="22.2619366" lon="114.2551062">
<ele>104.424</ele>
<time>2018-02-18T03:51:29.994Z</time>
</trkpt>
<trkpt lat="22.2619366" lon="114.2551062">
<ele>104.400</ele>
<time>2018-02-18T03:51:36.994Z</time>
</trkpt>
<trkpt lat="22.2619366" lon="114.2551062">
<ele>104.369</ele>
<time>2018-02-18T03:52:26.563Z</time>
</trkpt>
<trkpt lat="22.2619157" lon="114.2552027">
<ele>104.329</ele>
<time>2018-02-18T03:53:23.991Z</time>
</trkpt>
<trkpt lat="22.2619157" lon="114.2552027">
<ele>104.285</ele>
<time>2018-02-18T03:53:43.991Z</time>
</trkpt>
<trkpt lat="22.2619157" lon="114.2552027">
<ele>104.236</ele>
<time>2018-02-18T03:53:44.091Z</time>
</trkpt>
<trkpt lat="22.2619099" lon="114.2553408">
<ele>104.190</ele>
<time>2018-02-18T03:54:09.640Z</time>
</trkpt>
<trkpt lat="22.2619167" lon="114.2554418">
<ele>103.139</ele>
<time>2018-02-18T03:54:23.998Z</time>
</trkpt>
<trkpt lat="22.2619167" lon="114.2554418">
<ele>100.463</ele>
<time>2018-02-18T03:54:27.999Z</time>
</trkpt>
<trkpt lat="22.2619167" lon="114.2554418">
<ele>98.221</ele>
<time>2018-02-18T03:55:17.659Z</time>
</trkpt>
<trkpt lat="22.2618792" lon="114.2555449">
<ele>98.219</ele>
<time>2018-02-18T03:56:19.997Z</time>
</trkpt>
<trkpt lat="22.2618792" lon="114.2555449">
<ele>99.042</ele>
<time>2018-02-18T03:56:33.996Z</time>
</trkpt>
<trkpt lat="22.2618792" lon="114.2555449">
<ele>99.088</ele>
<time>2018-02-18T03:56:34.096Z</time>
</trkpt>
<trkpt lat="22.2618792" lon="114.2555449">
<ele>98.591</ele>
<time>2018-02-18T03:56:49.996Z</time>
</trkpt>
<trkpt lat="22.2618792" lon="114.2555449">
<ele>98.694</ele>
<time>2018-02-18T03:56:50.096Z</time>
</trkpt>
<trkpt lat="22.2618792" lon="114.2555449">
<ele>98.594</ele>
<time>2018-02-18T03:56:51.996Z</time>
</trkpt>
<trkpt lat="22.2618792" lon="114.2555449">
<ele>98.503</ele>
<time>2018-02-18T03:58:01.716Z</time>
</trkpt>
<trkpt lat="22.2618997" lon="114.2557757">
<ele>98.465</ele>
<time>2018-02-18T03:58:40.993Z</time>
</trkpt>
<trkpt lat="22.2618997" lon="114.2557757">
<ele>98.444</ele>
<time>2018-02-18T03:58:53.993Z</time>
</trkpt>
<trkpt lat="22.2618997" lon="114.2557757">
<ele>98.404</ele>
<time>2018-02-18T03:59:09.992Z</time>
</trkpt>
<trkpt lat="22.2618997" lon="114.2557757">
<ele>98.357</ele>
<time>2018-02-18T04:02:48.396Z</time>
</trkpt>
<trkpt lat="22.2618518" lon="114.2559904">
<ele>98.324</ele>
<time>2018-02-18T04:03:49.996Z</time>
</trkpt>
<trkpt lat="22.2618518" lon="114.2559904">
<ele>98.291</ele>
<time>2018-02-18T04:04:00.996Z</time>
</trkpt>
<trkpt lat="22.2618518" lon="114.2559904">
<ele>98.246</ele>
<time>2018-02-18T04:04:01.096Z</time>
</trkpt>
<trkpt lat="22.2618563" lon="114.2561089">
<ele>98.201</ele>
<time>2018-02-18T04:04:31.591Z</time>
</trkpt>
<trkpt lat="22.2618026" lon="114.2561915">
<ele>94.104</ele>
<time>2018-02-18T04:04:43.995Z</time>
</trkpt>
<trkpt lat="22.2618026" lon="114.2561915">
<ele>83.490</ele>
<time>2018-02-18T04:05:04.994Z</time>
</trkpt>
<trkpt lat="22.2618026" lon="114.2561915">
<ele>74.630</ele>
<time>2018-02-18T04:05:48.993Z</time>
</trkpt>
<trkpt lat="22.2618026" lon="114.2561915">
<ele>74.749</ele>
<time>2018-02-18T04:05:52.917Z</time>
</trkpt>
<trkpt lat="22.2617523" lon="114.2564029">
<ele>78.166</ele>
<time>2018-02-18T04:07:09.991Z</time>
</trkpt>
<trkpt lat="22.2617523" lon="114.2564029">
<ele>78.433</ele>
<time>2018-02-18T04:07:19.991Z</time>
</trkpt>
<trkpt lat="22.2617523" lon="114.2564029">
<ele>76.926</ele>
<time>2018-02-18T04:07:20.091Z</time>
</trkpt>
<trkpt lat="22.2617650" lon="114.2565588">
<ele>76.620</ele>
<time>2018-02-18T04:09:44.998Z</time>
</trkpt>
<trkpt lat="22.2617650" lon="114.2565588">
<ele>77.096</ele>
<time>2018-02-18T04:09:50.998Z</time>
</trkpt>
<trkpt lat="22.2617650" lon="114.2565588">
<ele>77.144</ele>
<time>2018-02-18T04:09:51.098Z</time>
</trkpt>
<trkpt lat="22.2617179" lon="114.2566415">
<ele>76.820</ele>
<time>2018-02-18T04:10:16.997Z</time>
</trkpt>
<trkpt lat="22.2617179" lon="114.2566415">
<ele>76.859</ele>
<time>2018-02-18T04:10:29.997Z</time>
</trkpt>
<trkpt lat="22.2617179" lon="114.2566415">
<ele>76.841</ele>
<time>2018-02-18T04:10:30.097Z</time>
</trkpt>
<trkpt lat="22.2617284" lon="114.2567484">
<ele>76.777</ele>
<time>2018-02-18T04:11:29.995Z</time>
</trkpt>
<trkpt lat="22.2617284" lon="114.2567484">
<ele>76.729</ele>
<time>2018-02-18T04:11:34.995Z</time>
</trkpt>
<trkpt lat="22.2617284" lon="114.2567484">
<ele>76.693</ele>
<time>2018-02-18T04:12:33.382Z</time>
</trkpt>
<trkpt lat="22.2618032" lon="114.2566872">
<ele>76.662</ele>
<time>2018-02-18T04:15:20.021Z</time>
</trkpt>
<trkpt lat="22.2618400" lon="114.2565984">
<ele>72.623</ele>
<time>2018-02-18T04:15:29.475Z</time>
</trkpt>
<trkpt lat="22.2619196" lon="114.2565320">
<ele>62.149</ele>
<time>2018-02-18T04:15:39.529Z</time>
</trkpt>
<trkpt lat="22.2619653" lon="114.2564470">
<ele>51.473</ele>
<time>2018-02-18T04:15:48.606Z</time>
</trkpt>
<trkpt lat="22.2620516" lon="114.2563840">
<ele>46.628</ele>
<time>2018-02-18T04:15:58.434Z</time>
</trkpt>
<trkpt lat="22.2621355" lon="114.2563369">
<ele>46.278</ele>
<time>2018-02-18T04:16:05.428Z</time>
</trkpt>
<trkpt lat="22.2621870" lon="114.2562561">
<ele>47.568</ele>
<time>2018-02-18T04:16:11.998Z</time>
</trkpt>
<trkpt lat="22.2621870" lon="114.2562561">
<ele>48.712</ele>
<time>2018-02-18T04:16:15.998Z</time>
</trkpt>
<trkpt lat="22.2621870" lon="114.2562561">
<ele>49.166</ele>
<time>2018-02-18T04:17:20.310Z</time>
</trkpt>
<trkpt lat="22.2622462" lon="114.2561829">
<ele>49.078</ele>
<time>2018-02-18T04:17:30.997Z</time>
</trkpt>
<trkpt lat="22.2622462" lon="114.2561829">
<ele>48.879</ele>
<time>2018-02-18T04:17:31.997Z</time>
</trkpt>
<trkpt lat="22.2622462" lon="114.2561829">
<ele>48.848</ele>
<time>2018-02-18T04:17:38.874Z</time>
</trkpt>
<trkpt lat="22.2622462" lon="114.2561829">
<ele>48.904</ele>
<time>2018-02-18T04:17:49.997Z</time>
</trkpt>
<trkpt lat="22.2622462" lon="114.2561829">
<ele>48.864</ele>
<time>2018-02-18T04:18:00.305Z</time>
</trkpt>
<trkpt lat="22.2623243" lon="114.2560976">
<ele>48.841</ele>
<time>2018-02-18T04:18:15.996Z</time>
</trkpt>
<trkpt lat="22.2623243" lon="114.2560976">
<ele>48.838</ele>
<time>2018-02-18T04:18:16.996Z</time>
</trkpt>
<trkpt lat="22.2623243" lon="114.2560976">
<ele>48.834</ele>
<time>2018-02-18T04:18:25.308Z</time>
</trkpt>
<trkpt lat="22.2623726" lon="114.2559769">
<ele>48.815</ele>
<time>2018-02-18T04:18:49.995Z</time>
</trkpt>
<trkpt lat="22.2623726" lon="114.2559769">
<ele>48.793</ele>
<time>2018-02-18T04:19:03.995Z</time>
</trkpt>
<trkpt lat="22.2623726" lon="114.2559769">
<ele>48.778</ele>
<time>2018-02-18T04:19:29.737Z</time>
</trkpt>
<trkpt lat="22.2624292" lon="114.2558792">
<ele>48.767</ele>
<time>2018-02-18T04:19:46.494Z</time>
</trkpt>
<trkpt lat="22.2624775" lon="114.2557953">
<ele>49.049</ele>
<time>2018-02-18T04:19:52.994Z</time>
</trkpt>
<trkpt lat="22.2624775" lon="114.2557953">
<ele>49.800</ele>
<time>2018-02-18T04:20:01.993Z</time>
</trkpt>
<trkpt lat="22.2624775" lon="114.2557953">
<ele>50.421</ele>
<time>2018-02-18T04:20:02.093Z</time>
</trkpt>
<trkpt lat="22.2626062" lon="114.2556786">
<ele>50.390</ele>
<time>2018-02-18T04:21:19.991Z</time>
</trkpt>
<trkpt lat="22.2626062" lon="114.2556786">
<ele>50.118</ele>
<time>2018-02-18T04:21:21.991Z</time>
</trkpt>
<trkpt lat="22.2626062" lon="114.2556786">
<ele>50.073</ele>
<time>2018-02-18T04:21:42.411Z</time>
</trkpt>
<trkpt lat="22.2627700" lon="114.2556154">
<ele>50.198</ele>
<time>2018-02-18T04:22:09.890Z</time>
</trkpt>
<trkpt lat="22.2628348" lon="114.2555393">
<ele>51.529</ele>
<time>2018-02-18T04:22:20.004Z</time>
</trkpt>
<trkpt lat="22.2628759" lon="114.2554504">
<ele>54.759</ele>
<time>2018-02-18T04:22:29.631Z</time>
</trkpt>
<trkpt lat="22.2629544" lon="114.2553973">
<ele>58.046</ele>
<time>2018-02-18T04:22:38.990Z</time>
</trkpt>
<trkpt lat="22.2629544" lon="114.2553973">
<ele>59.603</ele>
<time>2018-02-18T04:22:44.989Z</time>
</trkpt>
<trkpt lat="22.2629544" lon="114.2553973">
<ele>59.856</ele>
<time>2018-02-18T04:22:45.089Z</time>
</trkpt>
<trkpt lat="22.2630357" lon="114.2553092">
<ele>59.678</ele>
<time>2018-02-18T04:22:51.996Z</time>
</trkpt>
<trkpt lat="22.2630357" lon="114.2553092">
<ele>59.548</ele>
<time>2018-02-18T04:23:03.998Z</time>
</trkpt>
<trkpt lat="22.2630357" lon="114.2553092">
<ele>59.534</ele>
<time>2018-02-18T04:23:04.098Z</time>
</trkpt>
<trkpt lat="22.2631160" lon="114.2552078">
<ele>59.552</ele>
<time>2018-02-18T04:23:13.676Z</time>
</trkpt>
<trkpt lat="22.2631959" lon="114.2551617">
<ele>59.535</ele>
<time>2018-02-18T04:23:17.999Z</time>
</trkpt>
<trkpt lat="22.2631959" lon="114.2551617">
<ele>59.496</ele>
<time>2018-02-18T04:23:26.999Z</time>
</trkpt>
<trkpt lat="22.2631959" lon="114.2551617">
<ele>59.469</ele>
<time>2018-02-18T04:23:32.043Z</time>
</trkpt>
<trkpt lat="22.2633173" lon="114.2550362">
<ele>59.460</ele>
<time>2018-02-18T04:24:03.129Z</time>
</trkpt>
<trkpt lat="22.2633821" lon="114.2549632">
<ele>59.463</ele>
<time>2018-02-18T04:24:13.887Z</time>
</trkpt>
<trkpt lat="22.2634147" lon="114.2548647">
<ele>59.494</ele>
<time>2018-02-18T04:24:23.252Z</time>
</trkpt>
<trkpt lat="22.2634787" lon="114.2547936">
<ele>59.564</ele>
<time>2018-02-18T04:24:33.776Z</time>
</trkpt>
<trkpt lat="22.2635199" lon="114.2547011">
<ele>59.633</ele>
<time>2018-02-18T04:24:44.860Z</time>
</trkpt>
<trkpt lat="22.2635874" lon="114.2546349">
<ele>59.645</ele>
<time>2018-02-18T04:24:53.853Z</time>
</trkpt>
<trkpt lat="22.2636533" lon="114.2545642">
<ele>59.590</ele>
<time>2018-02-18T04:25:01.041Z</time>
</trkpt>
<trkpt lat="22.2637307" lon="114.2544991">
<ele>59.461</ele>
<time>2018-02-18T04:25:08.352Z</time>
</trkpt>
<trkpt lat="22.2637981" lon="114.2544229">
<ele>59.234</ele>
<time>2018-02-18T04:25:16.707Z</time>
</trkpt>
<trkpt lat="22.2638431" lon="114.2543272">
<ele>58.922</ele>
<time>2018-02-18T04:25:26.161Z</time>
</trkpt>
<trkpt lat="22.2639003" lon="114.2542474">
<ele>58.571</ele>
<time>2018-02-18T04:25:35.148Z</time>
</trkpt>
<trkpt lat="22.2639596" lon="114.2541641">
<ele>58.206</ele>
<time>2018-02-18T04:25:43.612Z</time>
</trkpt>
<trkpt lat="22.2640290" lon="114.2540856">
<ele>57.857</ele>
<time>2018-02-18T04:25:52.036Z</time>
</trkpt>
<trkpt lat="22.2640753" lon="114.2539997">
<ele>57.547</ele>
<time>2018-02-18T04:26:00.068Z</time>
</trkpt>
<trkpt lat="22.2641158" lon="114.2539018">
<ele>57.192</ele>
<time>2018-02-18T04:26:09.324Z</time>
</trkpt>
<trkpt lat="22.2641185" lon="114.2538032">
<ele>56.596</ele>
<time>2018-02-18T04:26:18.340Z</time>
</trkpt>
<trkpt lat="22.2641679" lon="114.2537196">
<ele>55.524</ele>
<time>2018-02-18T04:26:27.934Z</time>
</trkpt>
<trkpt lat="22.2642017" lon="114.2536175">
<ele>53.938</ele>
<time>2018-02-18T04:26:37.357Z</time>
</trkpt>
<trkpt lat="22.2642435" lon="114.2535275">
<ele>52.088</ele>
<time>2018-02-18T04:26:45.061Z</time>
</trkpt>
<trkpt lat="22.2642433" lon="114.2534265">
<ele>50.229</ele>
<time>2018-02-18T04:26:52.326Z</time>
</trkpt>
<trkpt lat="22.2642347" lon="114.2533210">
<ele>48.622</ele>
<time>2018-02-18T04:26:59.994Z</time>
</trkpt>
<trkpt lat="22.2642347" lon="114.2533210">
<ele>47.601</ele>
<time>2018-02-18T04:27:08.994Z</time>
</trkpt>
<trkpt lat="22.2642347" lon="114.2533210">
<ele>47.244</ele>
<time>2018-02-18T04:27:19.323Z</time>
</trkpt>
<trkpt lat="22.2642617" lon="114.2531947">
<ele>47.290</ele>
<time>2018-02-18T04:27:34.873Z</time>
</trkpt>
<trkpt lat="22.2643238" lon="114.2531190">
<ele>47.171</ele>
<time>2018-02-18T04:27:43.493Z</time>
</trkpt>
<trkpt lat="22.2643144" lon="114.2530207">
<ele>46.226</ele>
<time>2018-02-18T04:27:51.297Z</time>
</trkpt>
<trkpt lat="22.2644116" lon="114.2529831">
<ele>44.411</ele>
<time>2018-02-18T04:27:59.146Z</time>
</trkpt>
<trkpt lat="22.2645018" lon="114.2529908">
<ele>42.395</ele>
<time>2018-02-18T04:28:04.865Z</time>
</trkpt>
<trkpt lat="22.2645998" lon="114.2529850">
<ele>40.762</ele>
<time>2018-02-18T04:28:11.154Z</time>
</trkpt>
<trkpt lat="22.2646856" lon="114.2529508">
<ele>39.604</ele>
<time>2018-02-18T04:28:17.433Z</time>
</trkpt>
<trkpt lat="22.2647517" lon="114.2528802">
<ele>38.636</ele>
<time>2018-02-18T04:28:28.507Z</time>
</trkpt>
<trkpt lat="22.2647973" lon="114.2527830">
<ele>37.119</ele>
<time>2018-02-18T04:28:40.991Z</time>
</trkpt>
<trkpt lat="22.2647973" lon="114.2527830">
<ele>33.396</ele>
<time>2018-02-18T04:28:46.991Z</time>
</trkpt>
<trkpt lat="22.2647973" lon="114.2527830">
<ele>33.446</ele>
<time>2018-02-18T04:28:47.652Z</time>
</trkpt>
<trkpt lat="22.2648152" lon="114.2526430">
<ele>34.013</ele>
<time>2018-02-18T04:29:08.443Z</time>
</trkpt>
<trkpt lat="22.2648184" lon="114.2525395">
<ele>32.913</ele>
<time>2018-02-18T04:29:19.003Z</time>
</trkpt>
<trkpt lat="22.2648201" lon="114.2524348">
<ele>29.886</ele>
<time>2018-02-18T04:29:30.228Z</time>
</trkpt>
<trkpt lat="22.2648768" lon="114.2523520">
<ele>25.524</ele>
<time>2018-02-18T04:29:42.674Z</time>
</trkpt>
<trkpt lat="22.2649514" lon="114.2522957">
<ele>21.455</ele>
<time>2018-02-18T04:29:55.340Z</time>
</trkpt>
<trkpt lat="22.2649890" lon="114.2522001">
<ele>18.165</ele>
<time>2018-02-18T04:30:07.424Z</time>
</trkpt>
<trkpt lat="22.2648964" lon="114.2521687">
<ele>15.661</ele>
<time>2018-02-18T04:30:19.397Z</time>
</trkpt>
<trkpt lat="22.2648027" lon="114.2521416">
<ele>14.319</ele>
<time>2018-02-18T04:30:27.998Z</time>
</trkpt>
<trkpt lat="22.2648027" lon="114.2521416">
<ele>14.026</ele>
<time>2018-02-18T04:30:27.998Z</time>
</trkpt>
</trkseg>
</trk>
<extensions>
<fpdata xmlns="http://www.motionx.com/GPX-Extensions/1/1" sfv="10" origin="MotionXGPSFull 24.4 Build 5112 R64">
<bin enc="base64">
RgIAAAACAAAAvopMeDqi1kEBAAAAgll3W0Ci1kEAAHCREnGbQEMBAACj4wIAfCvKGlhY
DUDcLp0wVw0sQAAAAAANAAAATW9ybmluZyBoaWtlABYAAABGZWIgMTgsIDIwMTggMTA6
NTAgYW0AAAAAALBZd1tAotZBaks7XkCi1kGEJzwACnhg3PnzWkAsAAAAAAAAAD8d9AwW
kFxAzRYsN0JENkB8K8oaWFgNQAAAAAAAACRAAAAAAAAACEAAAAAAAIBzQAAAAAAAAAAA
AAAAAGZmZmZmVnBAoPH+Vf/FTEABAAAA+0CXYpxVqL8BAAAAAQAAAJJVORueE8A/+0CX
YpxVqL8BAAAAAQAAAAMAAAB59bC8PR8mQAEAAABRAAAAYXNzZXRzLWxpYnJhcnk6Ly9h
c3NldC9hc3NldC5KUEc/aWQ9MDY5OThEOTQtQ0I3NS00NzM5LUJFQTctODNGMkFGQzk2
MjY3JmV4dD1KUEcAAAAAAAAAAAAAAAAAAAAAAAAAAAAAAAAAAAAAAAAAAAAAAAAAnQwA
AIzv/1hAotZBAAAAAAAAAAAAAAAAAAAAAP8lRLwCAAAAAAAAAAAAAAABAAAAJwAAADI0
LjIgQnVpbGQgNTA2M1I2NCwgTVhBRSA4LjEgYi4gNjI2UjY0AAAAAADncAAAAQAAAAFE
AAAA4emIWmoBiVoEAIxMeDqi1kEAjEx4OqLWQQAAAAAAsBQ/AAAAAALSikx4OqLWQdQM
iYk6otZBAAAAAoI8UUAAAAAAAo1hDI86otZB1jr7sDqi1kEAAIClrZVpQAAAAAACvVOO
xDqi1kHqIgrGOqLWQQAAADyVU2pAAAAAAAL2Bgv6OqLWQSejB/s6otZBAACAVOPRakAA
AAAAAr8OCxI7otZBCrn5Ezui1kEAAAB6OMlrQAAAAAACUn9IFjui1kGKcEsYO6LWQQAA
ABaxymxAAAAAAAL3rcswO6LWQYYEyEA7otZBAADALm5kckAAAAAAAg6fSUU7otZBXORI
Rjui1kEAAECCP6RyQAAAAAACrMJMSzui1kEPC0lMO6LWQQAAAJtR43JAAAAAAAKgckhX
O6LWQSpYB2Q7otZBAACA/QoTdkAAAAAAAkz6SWg7otZBu+73aDui1kEAAEAZiD52QAAA
AAACmmJIozui1kHKjIylO6LWQQAAQKWSz3ZAAAAAAAI2k4itO6LWQebs9LI7otZBAABA
EakqeEAAAAAAAlLyCLU7otZBmE1HvDui1kEAAMDiP/p5QAAAAAACRrNKvzui1kHuXjbH
O6LWQQAAwMwq9XtAAAAAAALQR4nRO6LWQZxoN9s7otZBAADA/7JgfkAAAAAAAviHj907
otZBJh7H3jui1kEAAECLmK5+QAAAAAACXCCN5jui1kGmsgfpO6LWQQAAwB09TX9AAAAA
AALa4UrtO6LWQflmdu47otZBAACAZR6Yf0AAAAAAAi2xifE7otZBEw9FDTyi1kEAAIDv
ekODQAAAAAAC/ONKHTyi1kEa3bUdPKLWQQAAQBPaUINAAAAAAAILfAxDPKLWQV00NUk8
otZBAACAHfEVhEAAAAAAAtOFyE48otZBRnk4VDyi1kEAAOCL78OEQAAAAAACTE0KWDyi
1kFiFMhsPKLWQQAAoG6oW4dAAAAAAAKgcQyNPKLWQS7k86E8otZBAABgwJb4iUAAAAAA
AqPoy688otZBpz2GsTyi1kEAAOBg4S+KQAAAAAACryRKtDyi1kGALUi2PKLWQQAAAHui
b4pAAAAAAAL21QvBPKLWQbjq8sY8otZBAABAE4Usi0AAAAAAAiqmSsw8otZB1F8Hzjyi
1kEAAIBIHGSLQAAAAAACFysM4zyi1kHU9QflPKLWQQAAIKCVo4tAAAAAAALGqMv0PKLW
QcLDh/Y8otZBAACg/xjbi0AAAAAAAroWCf48otZBnfRyAT2i1kEAAAC8VEiMQAAAAAAC
YOeLCD2i1kHoLnMJPaLWQQAAAK09ZYxAAAAAAAKspkgLPaLWQTzXNw49otZBAAAAvyPD
jEAAAAAAAiR8SRU9otZBo5MyFj2i1kEAAOCuRuCMQAAAAAAC0ZSJGz2i1kG+FgcfPaLW
QQAAgOz2T41AAAAAAAJUrUgmPaLWQbbd8yk9otZBAADA+FzFjUAAAAAAAkoHFC49otZB
4zfINj2i1kEAAOAL49uOQAAAAAACAAPS6D2i1kEEqfvrPaLWQQAAYMwXQY9AAAAAAAJ8
ugvxPaLWQW7AiPI9otZBAACgirhwj0AAAAAAAgLuzf09otZB1ZOHAj6i1kEAAICi9gOQ
QAAAAAACILeNED6i1kGEYXESPqLWQQAAwEgxIpBAAAAAAAI9mgwtPqLWQeRJRjI+otZB
AAAwQ8x1kEAAAAAAAiqOjzU+otZBRwFHPT6i1kEAAAB1Q/GQQAAAAAACsIsQWT6i1kEO
a7FcPqLWQQAA4GpRK5FAAAAAAAIwYglgPqLWQU4KsGA+otZBAADA7Ls1kUAAAAAAAjJ3
zGA+otZBYrkHYT6i1kEAAMAPcDmRQAAAAAACil1LfD6i1kFSXoZ/PqLWQQAAQBwgbZFA
AAAAAAKzJ43JPqLWQUIhdMw+otZBAAAwtY+bkUAAAAAAAr9FStI+otZBTZ9v3D6i1kEA
ABBO5T2SQAAAAAAC+DOM+z6i1kEbDzT+PqLWQQAAQABjaJJAAAAAAAJAb0siP6LWQaRy
ByQ/otZBAACANiOEkkAAAAAAAsUCySg/otZBkdWuLT+i1kEAAEBjgNKSQAAAAAACveOM
PD+i1kEaif49P6LWQQAAELma6ZJAAAAAAAI6sUt0P6LWQbyWR4Q/otZBAAAwEVnpk0AA
AAAAAjzDzZY/otZB3rBHlz+i1kEAAFDr9/CTQAAAAAAC8s0Mmz+i1kFvZsabP6LWQQAA
IHOR/JNAAAAAAAK++A+iP6LWQRB4bqI/otZBAABAaHkClEAAAAAAAjhNi6o/otZB9MQx
rj+i1kEAAADk4DyUQAAAAAAC3+BJuD+i1kGXjrC8P6LWQQAAgL9Lg5RAAAAAAAIFFg7Q
P6LWQTXtstA/otZBAACAMpmNlEAAAAAAAm4XkNo/otZB3ZiG5T+i1kEAAHBJAT2VQAAA
AAACLEgN5z+i1kHRPS/qP6LWQQAAwKMgb5VAAAAAAAKU18rrP6LWQcptB/A/otZBAAAg
B+qylUAAAAAAAnMQS/Y/otZBiNOGJ0Ci1kEAAHA4psaYQAAAAAACMqiKLECi1kFoIwlA
QKLWQQAA0OuN/plAAAAAAAKrsYtDQKLWQQX8s1pAotZBAABwkRJxm0AAAAAAAAAAAA==

</bin>
</fpdata>
</extensions>
</gpx>
